Time;durP1;ratioP1;P1;durP2;ratioP2;P2;SDS_P1;SDS_P2;PMS_P1;PMS_P2;Temp;Humidity;BMP_temperature;BMP_pressure;BME280_temperature;BME280_humidity;BME280_pressure;Samples;Min_cycle;Max_cycle;Signal;HPM_P1;HPM_P2
2021/12/17 00:01:14;;;;;;;34.53;18.35;;;;;;;;;;1905206;75;21098;-44
2021/12/17 00:03:48;;;;;;;39.53;17.92;;;;;;;;;;1905205;75;21027;-45
2021/12/17 00:06:19;;;;;;;29.70;17.07;;;;;;;;;;1905203;74;21082;-44
2021/12/17 00:08:47;;;;;;;36.38;18.23;;;;;;;;;;1905301;75;21498;-43
2021/12/17 00:11:16;;;;;;;46.10;19.37;;;;;;;;;;1905300;75;21074;-43
2021/12/17 00:13:46;;;;;;;33.85;18.05;;;;;;;;;;1905283;75;21089;-44
2021/12/17 00:16:20;;;;;;;31.33;17.15;;;;;;;;;;1905276;75;21023;-43
2021/12/17 00:19:05;;;;;;;43.00;19.17;;;;;;;;;;1905442;75;21097;-43
2021/12/17 00:44:17;;;;;;;41.70;18.42;;;;;;;;;;1905316;75;21110;-44
2021/12/17 00:48:24;;;;;;;39.27;20.00;;;;;;;;;;1903545;74;21015;-44
2021/12/17 00:49:03;;;;;;;36.50;18.82;;;;;;;;;;1903222;75;21071;-44
2021/12/17 00:54:21;;;;;;;44.80;20.45;;;;;;;;;;1905158;75;21055;-44
2021/12/17 00:56:50;;;;;;;36.53;18.57;;;;;;;;;;1905404;75;21011;-43
2021/12/17 00:59:19;;;;;;;40.95;20.55;;;;;;;;;;1905321;75;21096;-44
2021/12/17 01:01:48;;;;;;;38.33;19.12;;;;;;;;;;1905370;75;21081;-43
2021/12/17 01:04:18;;;;;;;36.08;18.48;;;;;;;;;;1905264;75;21089;-44
2021/12/17 01:06:46;;;;;;;41.37;19.15;;;;;;;;;;1905225;75;21172;-44
2021/12/17 01:09:17;;;;;;;38.65;18.92;;;;;;;;;;1892397;75;20987;-43
2021/12/17 01:11:46;;;;;;;39.10;19.00;;;;;;;;;;1905389;75;21020;-43
2021/12/17 01:14:34;;;;;;;41.75;19.02;;;;;;;;;;1905270;75;21155;-43
2021/12/17 01:17:09;;;;;;;40.80;19.40;;;;;;;;;;1896411;75;21518;-44
2021/12/17 01:20:14;;;;;;;40.28;18.45;;;;;;;;;;1902782;74;21071;-44
2021/12/17 01:25:20;;;;;;;46.73;20.55;;;;;;;;;;1904727;74;21058;-44
2021/12/17 01:36:28;;;;;;;41.00;17.92;;;;;;;;;;1842792;74;21034;-44
2021/12/17 01:44:09;;;;;;;34.55;17.55;;;;;;;;;;1905329;75;21474;-43
2021/12/17 01:46:39;;;;;;;32.23;18.77;;;;;;;;;;1905459;75;20995;-44
2021/12/17 01:59:59;;;;;;;26.37;16.12;;;;;;;;;;1924566;74;21038;-44
2021/12/17 02:02:28;;;;;;;27.48;16.05;;;;;;;;;;1924538;74;21006;-44
2021/12/17 02:04:56;;;;;;;29.65;16.20;;;;;;;;;;1924708;74;21112;-44
2021/12/17 02:07:25;;;;;;;24.70;16.00;;;;;;;;;;1924608;74;21096;-44
2021/12/17 02:31:40;;;;;;;17.17;11.15;;;;;;;;;;1924737;74;21051;-44
2021/12/17 02:34:33;;;;;;;19.32;12.55;;;;;;;;;;1924627;74;21023;-44
2021/12/17 02:36:44;;;;;;;20.08;12.73;;;;;;;;;;1921693;74;21108;-44
2021/12/17 02:39:49;;;;;;;19.15;13.13;;;;;;;;;;1924569;74;21117;-44
2021/12/17 02:47:20;;;;;;;22.93;13.20;;;;;;;;;;1924713;74;21040;-45
2021/12/17 02:49:50;;;;;;;24.23;13.90;;;;;;;;;;1924836;74;21027;-45
2021/12/17 02:52:18;;;;;;;21.95;13.08;;;;;;;;;;1924736;74;20991;-41
2021/12/17 02:54:48;;;;;;;25.80;13.55;;;;;;;;;;1924603;74;21051;-43
2021/12/17 02:57:17;;;;;;;24.05;12.85;;;;;;;;;;1924726;74;21035;-44
2021/12/17 02:59:46;;;;;;;19.62;12.45;;;;;;;;;;1924702;74;21134;-43
2021/12/17 03:02:15;;;;;;;24.15;14.07;;;;;;;;;;1924727;74;21147;-43
2021/12/17 03:04:44;;;;;;;31.85;14.63;;;;;;;;;;1924703;74;21007;-43
2021/12/17 03:07:13;;;;;;;29.12;14.50;;;;;;;;;;1924689;74;21054;-42
2021/12/17 03:10:02;;;;;;;28.40;15.03;;;;;;;;;;1924786;74;20991;-43
2021/12/17 03:12:26;;;;;;;24.80;13.98;;;;;;;;;;1922368;74;21038;-43
2021/12/17 03:15:04;;;;;;;31.37;15.18;;;;;;;;;;1924123;74;21073;-43
2021/12/17 03:17:48;;;;;;;29.48;14.38;;;;;;;;;;1922384;74;21572;-43
2021/12/17 03:25:12;;;;;;;29.07;15.93;;;;;;;;;;1924766;74;21035;-43
2021/12/17 03:27:41;;;;;;;29.30;15.00;;;;;;;;;;1924714;74;21038;-45
2021/12/17 03:30:10;;;;;;;33.33;14.75;;;;;;;;;;1924724;74;21018;-44
2021/12/17 03:32:40;;;;;;;29.80;14.47;;;;;;;;;;1924855;74;21034;-43
2021/12/17 03:35:09;;;;;;;27.85;15.75;;;;;;;;;;1924828;74;21066;-43
2021/12/17 03:37:38;;;;;;;34.78;19.82;;;;;;;;;;1924793;74;21102;-43
2021/12/17 03:40:07;;;;;;;22.67;15.55;;;;;;;;;;1924769;74;21139;-43
2021/12/17 03:42:35;;;;;;;29.87;17.92;;;;;;;;;;1924830;74;21100;-43
2021/12/17 03:45:05;;;;;;;36.40;19.60;;;;;;;;;;1924792;74;21030;-43
2021/12/17 03:47:45;;;;;;;30.27;18.12;;;;;;;;;;1923210;74;21066;-42
2021/12/17 03:50:18;;;;;;;37.03;15.88;;;;;;;;;;1924579;74;21059;-43
2021/12/17 03:52:47;;;;;;;22.80;10.88;;;;;;;;;;1924805;74;21092;-43
2021/12/17 03:55:17;;;;;;;23.38;13.08;;;;;;;;;;1924566;74;21223;-43
2021/12/17 03:57:47;;;;;;;32.13;13.13;;;;;;;;;;1924544;74;21072;-43
2021/12/17 04:00:16;;;;;;;25.37;14.28;;;;;;;;;;1924691;74;21050;-43
2021/12/17 04:02:45;;;;;;;30.70;15.30;;;;;;;;;;1924487;74;21051;-43
2021/12/17 04:05:15;;;;;;;41.98;17.98;;;;;;;;;;1921553;74;21049;-44
2021/12/17 04:08:02;;;;;;;41.77;18.12;;;;;;;;;;1924648;74;21042;-43
2021/12/17 04:10:51;;;;;;;46.20;23.07;;;;;;;;;;1924649;74;21052;-43
2021/12/17 04:15:58;;;;;;;51.92;26.90;;;;;;;;;;1924527;74;21516;-43
2021/12/17 04:18:25;;;;;;;49.98;20.88;;;;;;;;;;1924447;74;21488;-43
2021/12/17 04:20:53;;;;;;;75.45;35.68;;;;;;;;;;1924611;74;21088;-43
2021/12/17 04:23:23;;;;;;;48.63;24.18;;;;;;;;;;1924798;74;21147;-43
2021/12/17 04:25:52;;;;;;;38.92;18.25;;;;;;;;;;1903873;74;21034;-43
2021/12/17 04:28:21;;;;;;;44.03;17.32;;;;;;;;;;1924549;74;20990;-43
2021/12/17 04:30:50;;;;;;;33.88;16.48;;;;;;;;;;1924774;74;21046;-43
2021/12/17 04:33:19;;;;;;;47.30;17.67;;;;;;;;;;1924572;74;21023;-43
2021/12/17 04:35:48;;;;;;;35.92;16.35;;;;;;;;;;1924762;74;21163;-43
2021/12/17 04:38:18;;;;;;;37.38;16.12;;;;;;;;;;1924587;74;21084;-44
2021/12/17 04:40:49;;;;;;;36.25;17.23;;;;;;;;;;1924659;74;21096;-43
2021/12/17 04:43:29;;;;;;;28.17;13.10;;;;;;;;;;1924673;74;21544;-43
2021/12/17 04:46:03;;;;;;;33.98;16.62;;;;;;;;;;1922930;74;21500;-43
2021/12/17 04:59:19;;;;;;;27.40;14.40;;;;;;;;;;1880119;74;21515;-43
2021/12/17 05:01:49;;;;;;;29.80;14.10;;;;;;;;;;1924533;74;21050;-43
2021/12/17 05:04:19;;;;;;;32.63;15.40;;;;;;;;;;1924778;74;21033;-43
2021/12/17 05:06:48;;;;;;;29.80;13.53;;;;;;;;;;1904015;74;21515;-43
2021/12/17 05:09:30;;;;;;;23.15;13.22;;;;;;;;;;1924678;74;21039;-43
2021/12/17 05:19:54;;;;;;;35.55;15.23;;;;;;;;;;1924620;74;21038;-43
2021/12/17 05:22:24;;;;;;;34.50;15.45;;;;;;;;;;1924573;74;21473;-43
2021/12/17 05:24:53;;;;;;;34.48;15.65;;;;;;;;;;1924576;74;21805;-43
2021/12/17 05:27:22;;;;;;;36.55;16.25;;;;;;;;;;1903822;74;21038;-45
2021/12/17 05:29:53;;;;;;;35.52;16.57;;;;;;;;;;1924021;74;21055;-42
2021/12/17 05:32:22;;;;;;;34.43;15.68;;;;;;;;;;1924730;74;21454;-43
2021/12/17 05:34:52;;;;;;;36.17;17.95;;;;;;;;;;1924656;74;21096;-43
2021/12/17 05:37:20;;;;;;;31.17;16.85;;;;;;;;;;1924549;74;21106;-44
2021/12/17 05:39:49;;;;;;;35.73;20.12;;;;;;;;;;1924653;74;21104;-43
2021/12/17 05:42:19;;;;;;;33.88;18.20;;;;;;;;;;1924490;74;21104;-44
2021/12/17 05:45:07;;;;;;;43.80;19.57;;;;;;;;;;1923729;74;21132;-44
2021/12/17 05:47:28;;;;;;;35.70;17.82;;;;;;;;;;1923521;74;21493;-43
2021/12/17 05:49:57;;;;;;;65.50;32.15;;;;;;;;;;1924531;74;21038;-43
2021/12/17 05:52:26;;;;;;;50.40;26.68;;;;;;;;;;1924650;74;21093;-44
2021/12/17 05:54:55;;;;;;;32.75;16.97;;;;;;;;;;1924530;74;21011;-43
2021/12/17 05:57:24;;;;;;;88.03;38.75;;;;;;;;;;1924388;74;21069;-43
2021/12/17 05:59:52;;;;;;;34.00;15.83;;;;;;;;;;1924506;74;21007;-44
2021/12/17 06:02:21;;;;;;;35.78;18.25;;;;;;;;;;1924392;74;20995;-44
2021/12/17 06:04:52;;;;;;;31.37;15.50;;;;;;;;;;1924213;74;21071;-46
2021/12/17 06:07:27;;;;;;;43.85;23.60;;;;;;;;;;1924645;74;21026;-44
2021/12/17 06:10:04;;;;;;;39.42;14.93;;;;;;;;;;1925034;74;21027;-44
2021/12/17 06:12:28;;;;;;;35.03;15.58;;;;;;;;;;1923761;74;21015;-44
2021/12/17 06:14:57;;;;;;;33.88;14.68;;;;;;;;;;1924646;74;21140;-45
2021/12/17 06:17:26;;;;;;;27.40;14.10;;;;;;;;;;1924796;74;21022;-44
2021/12/17 06:19:55;;;;;;;31.50;15.20;;;;;;;;;;1924720;74;21014;-44
2021/12/17 06:22:24;;;;;;;30.05;14.55;;;;;;;;;;1924759;74;21074;-45
2021/12/17 06:24:54;;;;;;;29.25;13.83;;;;;;;;;;1924536;74;21075;-45
2021/12/17 06:27:28;;;;;;;26.62;13.10;;;;;;;;;;1924642;74;21058;-46
2021/12/17 06:29:54;;;;;;;26.42;13.72;;;;;;;;;;1923347;74;21098;-43
2021/12/17 06:32:22;;;;;;;38.38;17.15;;;;;;;;;;1924867;74;21084;-45
2021/12/17 06:34:52;;;;;;;28.75;13.85;;;;;;;;;;1924730;74;21101;-45
2021/12/17 06:37:22;;;;;;;26.45;13.48;;;;;;;;;;1924754;74;21108;-44
2021/12/17 06:39:52;;;;;;;24.57;12.75;;;;;;;;;;1924690;74;21038;-44
2021/12/17 06:42:21;;;;;;;26.17;13.90;;;;;;;;;;1924707;74;21038;-45
2021/12/17 06:44:50;;;;;;;26.87;12.53;;;;;;;;;;1924720;74;21093;-44
2021/12/17 06:54:36;;;;;;;23.27;11.88;;;;;;;;;;1880371;74;21108;-44
2021/12/17 06:58:37;;;;;;;24.15;11.30;;;;;;;;;;1922062;74;21074;-44
2021/12/17 07:01:05;;;;;;;27.22;12.00;;;;;;;;;;1924501;74;21137;-44
2021/12/17 07:17:09;;;;;;;23.92;11.93;;;;;;;;;;1924004;74;20358;-43
2021/12/17 07:17:28;;;;;;;22.45;12.58;;;;;;;;;;1924610;74;21104;-43
2021/12/17 07:23:07;;;;;;;27.20;13.08;;;;;;;;;;1924512;74;21109;-43
2021/12/17 07:28:27;;;;;;;30.15;14.35;;;;;;;;;;1869331;74;21042;-43
2021/12/17 07:32:12;;;;;;;30.23;15.18;;;;;;;;;;1922321;74;20987;-43
2021/12/17 07:33:59;;;;;;;27.50;14.38;;;;;;;;;;1920739;74;21055;-43
2021/12/17 07:36:15;;;;;;;29.87;14.95;;;;;;;;;;1914983;74;21443;-44
2021/12/17 07:38:50;;;;;;;24.98;12.93;;;;;;;;;;1924534;74;21023;-43
2021/12/17 07:41:33;;;;;;;32.53;13.48;;;;;;;;;;1924612;74;21050;-43
2021/12/17 07:44:03;;;;;;;23.47;12.00;;;;;;;;;;1923209;74;21094;-43
2021/12/17 07:46:34;;;;;;;24.50;11.88;;;;;;;;;;1924444;74;21067;-42
2021/12/17 07:49:03;;;;;;;24.20;12.63;;;;;;;;;;1923110;74;21125;-45
2021/12/17 07:51:32;;;;;;;28.95;13.10;;;;;;;;;;1923428;74;21090;-44
2021/12/17 07:54:02;;;;;;;22.82;11.48;;;;;;;;;;1923493;73;20991;-44
2021/12/17 07:56:37;;;;;;;30.85;12.20;;;;;;;;;;1923521;74;21019;-43
2021/12/17 07:59:03;;;;;;;24.75;13.08;;;;;;;;;;1902789;74;21583;-44
2021/12/17 08:01:35;;;;;;;21.80;11.22;;;;;;;;;;1903193;74;21102;-44
2021/12/17 08:04:04;;;;;;;26.40;11.95;;;;;;;;;;1902659;75;21392;-44
2021/12/17 08:06:35;;;;;;;27.90;14.00;;;;;;;;;;1897980;74;21058;-44
2021/12/17 08:09:08;;;;;;;29.87;14.18;;;;;;;;;;1895100;74;21668;-44
2021/12/17 08:11:40;;;;;;;28.00;12.78;;;;;;;;;;1903421;74;21407;-44
2021/12/17 08:14:10;;;;;;;26.27;12.23;;;;;;;;;;1903637;75;21051;-44
2021/12/17 08:16:51;;;;;;;24.90;12.65;;;;;;;;;;1903383;75;21027;-44
2021/12/17 08:24:47;;;;;;;20.90;12.43;;;;;;;;;;1901463;75;21043;-45
2021/12/17 08:27:22;;;;;;;22.65;11.55;;;;;;;;;;1874576;75;21088;-43
2021/12/17 08:29:52;;;;;;;26.82;11.75;;;;;;;;;;1899461;75;21019;-43
2021/12/17 08:32:14;;;;;;;23.62;12.40;;;;;;;;;;1900357;75;21674;-44
2021/12/17 08:34:50;;;;;;;27.85;13.13;;;;;;;;;;1901567;75;21046;-44
2021/12/17 08:37:19;;;;;;;22.85;12.80;;;;;;;;;;1902874;75;21098;-44
2021/12/17 08:39:49;;;;;;;22.87;11.70;;;;;;;;;;1902475;75;21090;-44
2021/12/17 08:42:27;;;;;;;23.73;11.73;;;;;;;;;;1901236;75;21141;-46
2021/12/17 08:44:56;;;;;;;26.20;11.50;;;;;;;;;;1902810;75;21101;-43
2021/12/17 08:47:43;;;;;;;19.00;10.38;;;;;;;;;;1902841;75;21068;-44
2021/12/17 08:50:13;;;;;;;25.70;11.03;;;;;;;;;;1902654;75;21152;-43
2021/12/17 08:52:42;;;;;;;22.32;12.35;;;;;;;;;;1902729;75;21101;-43
2021/12/17 08:55:11;;;;;;;21.80;10.38;;;;;;;;;;1902729;75;21105;-43
2021/12/17 08:57:41;;;;;;;22.75;10.98;;;;;;;;;;1902659;75;21055;-44
2021/12/17 09:00:12;;;;;;;17.75;10.03;;;;;;;;;;1902799;75;21051;-44
2021/12/17 09:02:48;;;;;;;27.85;11.00;;;;;;;;;;1901316;75;21051;-43
2021/12/17 09:05:25;;;;;;;17.90;8.70;;;;;;;;;;1899270;75;21102;-44
2021/12/17 09:07:54;;;;;;;16.07;8.93;;;;;;;;;;1902642;75;21136;-44
2021/12/17 09:10:40;;;;;;;15.53;8.73;;;;;;;;;;1901752;75;21104;-44
2021/12/17 09:13:10;;;;;;;16.60;8.70;;;;;;;;;;1877284;75;21462;-44
2021/12/17 09:15:39;;;;;;;14.60;7.62;;;;;;;;;;1902655;75;21168;-44
2021/12/17 09:18:09;;;;;;;12.40;7.67;;;;;;;;;;1901435;75;21019;-45
2021/12/17 09:20:40;;;;;;;12.63;7.12;;;;;;;;;;1901501;75;21047;-44
2021/12/17 09:23:10;;;;;;;19.30;8.23;;;;;;;;;;1902709;75;21056;-44
2021/12/17 09:25:41;;;;;;;11.20;6.65;;;;;;;;;;1902568;75;21039;-44
2021/12/17 09:28:11;;;;;;;16.57;8.63;;;;;;;;;;1901405;75;21098;-45
2021/12/17 09:30:54;;;;;;;10.85;7.12;;;;;;;;;;1899850;75;21108;-44
2021/12/17 09:33:23;;;;;;;15.70;7.25;;;;;;;;;;1902339;75;21074;-43
2021/12/17 09:35:51;;;;;;;9.70;4.15;;;;;;;;;;1902736;75;21015;-43
2021/12/17 09:38:20;;;;;;;6.50;4.15;;;;;;;;;;1902892;75;21142;-43
2021/12/17 09:40:49;;;;;;;8.45;4.37;;;;;;;;;;1902495;75;21082;-43
2021/12/17 09:43:18;;;;;;;19.98;11.00;;;;;;;;;;1902458;75;21494;-42
2021/12/17 09:45:47;;;;;;;6.03;3.85;;;;;;;;;;1902655;75;21055;-43
2021/12/17 09:48:16;;;;;;;6.65;3.70;;;;;;;;;;1902541;75;21075;-44
2021/12/17 09:50:45;;;;;;;6.45;3.42;;;;;;;;;;1902688;75;21156;-43
2021/12/17 09:53:13;;;;;;;4.90;3.12;;;;;;;;;;1902673;75;21011;-44
2021/12/17 09:55:42;;;;;;;11.00;4.08;;;;;;;;;;1902553;75;21101;-43
2021/12/17 09:58:11;;;;;;;6.65;3.77;;;;;;;;;;1902530;75;21125;-43
2021/12/17 10:00:40;;;;;;;5.00;3.50;;;;;;;;;;1902456;75;21109;-44
2021/12/17 10:03:09;;;;;;;5.62;4.03;;;;;;;;;;1902526;75;21144;-43
2021/12/17 10:05:38;;;;;;;4.75;3.02;;;;;;;;;;1902611;75;21074;-43
2021/12/17 10:08:08;;;;;;;6.45;3.20;;;;;;;;;;1902631;75;21046;-43
2021/12/17 10:10:38;;;;;;;4.67;3.75;;;;;;;;;;1899740;75;21058;-44
2021/12/17 10:13:11;;;;;;;5.50;3.77;;;;;;;;;;1902183;75;21027;-44
2021/12/17 10:15:41;;;;;;;7.28;3.47;;;;;;;;;;1901934;75;21032;-42
2021/12/17 10:18:10;;;;;;;5.08;3.20;;;;;;;;;;1902432;75;21043;-43
2021/12/17 10:20:43;;;;;;;5.15;3.33;;;;;;;;;;1902682;75;21027;-43
2021/12/17 10:23:12;;;;;;;5.37;3.90;;;;;;;;;;1900346;75;21089;-43
2021/12/17 10:25:45;;;;;;;8.25;4.25;;;;;;;;;;1875439;75;21034;-44
2021/12/17 10:28:14;;;;;;;5.10;3.40;;;;;;;;;;1872207;76;21035;-43
2021/12/17 10:30:44;;;;;;;6.30;3.30;;;;;;;;;;1872034;77;21031;-43
2021/12/17 10:33:15;;;;;;;10.32;5.20;;;;;;;;;;1871877;77;21106;-43
2021/12/17 10:35:47;;;;;;;7.15;4.35;;;;;;;;;;1871965;77;21367;-44
2021/12/17 10:38:16;;;;;;;6.28;2.70;;;;;;;;;;1872015;76;21594;-44
2021/12/17 10:40:54;;;;;;;4.42;3.00;;;;;;;;;;1871927;77;21051;-43
2021/12/17 10:43:27;;;;;;;2.87;2.30;;;;;;;;;;1872457;76;21486;-43
2021/12/17 10:48:33;;;;;;;11.53;5.62;;;;;;;;;;1865136;76;21064;-43
2021/12/17 10:51:02;;;;;;;7.92;5.67;;;;;;;;;;1872518;76;21023;-42
2021/12/17 10:53:30;;;;;;;4.40;2.12;;;;;;;;;;1872636;76;21023;-42
2021/12/17 10:55:59;;;;;;;2.87;2.22;;;;;;;;;;1872743;76;21047;-42
2021/12/17 10:58:28;;;;;;;8.65;3.47;;;;;;;;;;1872830;76;21062;-42
2021/12/17 11:01:05;;;;;;;9.63;3.75;;;;;;;;;;1872806;75;21101;-42
2021/12/17 11:03:33;;;;;;;6.58;3.92;;;;;;;;;;1872827;76;21563;-42
2021/12/17 11:06:03;;;;;;;2.90;2.10;;;;;;;;;;1872614;76;21057;-42
2021/12/17 11:08:37;;;;;;;5.72;4.10;;;;;;;;;;1872693;77;21047;-42
2021/12/17 11:11:09;;;;;;;3.15;2.67;;;;;;;;;;1872528;75;21113;-42
2021/12/17 11:13:37;;;;;;;3.37;2.20;;;;;;;;;;1873022;76;21120;-42
2021/12/17 11:16:05;;;;;;;4.22;2.62;;;;;;;;;;1872788;77;21104;-42
2021/12/17 11:18:34;;;;;;;4.90;2.10;;;;;;;;;;1872755;76;21399;-42
2021/12/17 11:21:03;;;;;;;2.72;2.20;;;;;;;;;;1872647;75;21098;-43
2021/12/17 11:23:33;;;;;;;3.42;2.62;;;;;;;;;;1872756;77;20999;-43
2021/12/17 11:26:02;;;;;;;4.08;2.83;;;;;;;;;;1872698;75;21031;-42
2021/12/17 11:28:31;;;;;;;6.15;2.50;;;;;;;;;;1872578;77;21081;-42
2021/12/17 11:31:00;;;;;;;3.15;2.50;;;;;;;;;;1872734;77;21015;-43
2021/12/17 11:33:30;;;;;;;17.30;8.20;;;;;;;;;;1872873;77;21015;-42
2021/12/17 11:35:58;;;;;;;6.80;3.65;;;;;;;;;;1872801;77;21472;-42
2021/12/17 11:38:44;;;;;;;22.45;3.90;;;;;;;;;;1872850;77;21105;-42
2021/12/17 11:41:16;;;;;;;3.90;2.50;;;;;;;;;;1872601;76;21089;-42
2021/12/17 11:43:53;;;;;;;3.80;2.60;;;;;;;;;;1872798;76;21070;-43
2021/12/17 11:46:26;;;;;;;5.08;2.02;;;;;;;;;;1872895;76;20999;-42
2021/12/17 11:48:56;;;;;;;3.62;2.33;;;;;;;;;;1872925;77;21058;-42
2021/12/17 11:51:26;;;;;;;4.08;2.17;;;;;;;;;;1872924;76;21622;-42
2021/12/17 11:53:57;;;;;;;2.37;1.80;;;;;;;;;;1872824;76;21082;-42
2021/12/17 11:56:43;;;;;;;5.53;3.05;;;;;;;;;;1872718;77;21110;-42
2021/12/17 11:59:27;;;;;;;4.70;2.70;;;;;;;;;;1877916;76;21120;-43
2021/12/17 12:01:59;;;;;;;6.67;2.95;;;;;;;;;;1891475;76;21100;-42
2021/12/17 12:04:34;;;;;;;2.98;1.90;;;;;;;;;;1891514;76;21500;-42
2021/12/17 12:07:04;;;;;;;1.15;1.05;;;;;;;;;;1891352;76;21049;-43
2021/12/17 12:10:00;;;;;;;2.12;1.70;;;;;;;;;;1891534;76;21441;-42
2021/12/17 12:12:30;;;;;;;2.58;1.50;;;;;;;;;;1890179;75;21488;-41
2021/12/17 12:15:16;;;;;;;3.50;1.57;;;;;;;;;;1891603;76;21144;-43
2021/12/17 12:18:05;;;;;;;3.22;1.40;;;;;;;;;;1891498;76;21151;-41
2021/12/17 12:20:56;;;;;;;1.70;1.20;;;;;;;;;;1891492;76;21587;-42
2021/12/17 12:23:24;;;;;;;2.85;1.40;;;;;;;;;;1890034;75;21124;-45
2021/12/17 12:26:03;;;;;;;1.27;1.12;;;;;;;;;;1891597;76;21031;-42
2021/12/17 12:28:49;;;;;;;2.65;1.40;;;;;;;;;;1891515;76;21088;-43
2021/12/17 12:31:19;;;;;;;7.08;3.42;;;;;;;;;;1891513;76;21054;-42
2021/12/17 12:34:05;;;;;;;2.98;1.32;;;;;;;;;;1891529;76;21078;-42
2021/12/17 12:36:51;;;;;;;5.25;2.45;;;;;;;;;;1891586;76;21080;-42
2021/12/17 12:39:24;;;;;;;3.45;2.00;;;;;;;;;;1891768;75;21038;-42
2021/12/17 12:42:10;;;;;;;4.25;1.60;;;;;;;;;;1891562;76;21101;-43
2021/12/17 12:44:46;;;;;;;3.25;1.32;;;;;;;;;;1891487;76;21244;-43
2021/12/17 12:47:16;;;;;;;1.90;1.30;;;;;;;;;;1891375;76;21127;-41
2021/12/17 12:49:49;;;;;;;2.42;1.80;;;;;;;;;;1891586;75;21569;-42
2021/12/17 12:52:36;;;;;;;3.45;1.45;;;;;;;;;;1891559;76;21472;-42
2021/12/17 12:55:23;;;;;;;4.20;1.60;;;;;;;;;;1891592;76;21203;-42
2021/12/17 12:57:53;;;;;;;3.90;1.70;;;;;;;;;;1891480;76;21042;-42
2021/12/17 13:00:23;;;;;;;2.00;1.70;;;;;;;;;;1891393;76;21116;-43
2021/12/17 13:02:54;;;;;;;3.37;1.92;;;;;;;;;;1891429;75;21053;-42
2021/12/17 13:05:24;;;;;;;2.05;1.45;;;;;;;;;;1891415;76;21035;-42
2021/12/17 13:07:54;;;;;;;12.93;6.67;;;;;;;;;;1871597;76;21575;-42
2021/12/17 13:10:24;;;;;;;7.00;1.70;;;;;;;;;;1891463;76;21027;-42
2021/12/17 13:13:17;;;;;;;6.50;3.33;;;;;;;;;;1891524;76;21058;-42
2021/12/17 13:15:43;;;;;;;26.70;17.55;;;;;;;;;;1890506;75;21018;-43
2021/12/17 13:23:22;;;;;;;5.85;3.27;;;;;;;;;;1891479;76;21042;-42
2021/12/17 13:26:05;;;;;;;6.78;3.15;;;;;;;;;;1891472;76;21022;-42
2021/12/17 13:28:52;;;;;;;9.35;2.58;;;;;;;;;;1891512;76;21433;-42
2021/12/17 13:31:34;;;;;;;5.90;2.87;;;;;;;;;;1891452;76;21015;-42
2021/12/17 13:34:07;;;;;;;7.22;3.77;;;;;;;;;;1891478;75;21054;-41
2021/12/17 13:36:35;;;;;;;14.38;6.65;;;;;;;;;;1891418;76;21579;-42
2021/12/17 13:39:05;;;;;;;6.65;3.95;;;;;;;;;;1891590;76;21038;-42
2021/12/17 13:41:37;;;;;;;6.95;2.33;;;;;;;;;;1891517;75;21030;-42
2021/12/17 13:44:06;;;;;;;2.72;1.27;;;;;;;;;;1891385;76;21096;-42
2021/12/17 13:46:37;;;;;;;2.25;1.35;;;;;;;;;;1891508;76;21030;-41
2021/12/17 13:49:06;;;;;;;1.17;1.00;;;;;;;;;;1891545;76;21034;-42
2021/12/17 13:51:34;;;;;;;2.60;1.30;;;;;;;;;;1891531;76;21038;-42
2021/12/17 13:54:03;;;;;;;3.52;1.40;;;;;;;;;;1891424;76;21042;-42
2021/12/17 13:56:32;;;;;;;1.50;1.20;;;;;;;;;;1891435;76;21050;-42
2021/12/17 13:59:02;;;;;;;3.33;1.62;;;;;;;;;;1891454;75;21108;-42
2021/12/17 14:01:31;;;;;;;2.98;1.70;;;;;;;;;;1875392;76;21117;-43
2021/12/17 14:04:00;;;;;;;3.17;1.50;;;;;;;;;;1872701;77;21101;-42
2021/12/17 14:06:36;;;;;;;3.47;1.30;;;;;;;;;;1872706;77;21035;-42
2021/12/17 14:09:00;;;;;;;3.15;1.45;;;;;;;;;;1872483;75;21530;-42
2021/12/17 14:11:32;;;;;;;5.20;1.67;;;;;;;;;;1872797;75;21019;-43
2021/12/17 14:14:04;;;;;;;2.27;1.20;;;;;;;;;;1872741;76;21457;-42
2021/12/17 14:16:39;;;;;;;2.33;1.37;;;;;;;;;;1872426;76;21551;-42
2021/12/17 14:19:07;;;;;;;4.37;1.90;;;;;;;;;;1872842;76;21027;-44
2021/12/17 14:21:36;;;;;;;4.80;1.70;;;;;;;;;;1872640;77;21066;-42
2021/12/17 14:24:05;;;;;;;3.77;2.00;;;;;;;;;;1872640;77;21281;-43
2021/12/17 14:26:34;;;;;;;4.58;1.95;;;;;;;;;;1872732;77;21027;-43
2021/12/17 14:29:10;;;;;;;2.70;1.80;;;;;;;;;;1872727;76;21494;-44
2021/12/17 14:31:39;;;;;;;3.08;1.75;;;;;;;;;;1872935;76;21473;-42
2021/12/17 14:34:09;;;;;;;6.00;2.98;;;;;;;;;;1872789;75;21011;-43
2021/12/17 14:36:41;;;;;;;5.45;2.90;;;;;;;;;;1872892;76;21555;-42
2021/12/17 14:39:15;;;;;;;7.12;3.35;;;;;;;;;;1872771;77;21125;-42
2021/12/17 14:41:50;;;;;;;5.00;3.60;;;;;;;;;;1872637;76;21055;-42
2021/12/17 14:44:35;;;;;;;4.43;2.43;;;;;;;;;;1872924;76;21521;-42
2021/12/17 14:46:56;;;;;;;4.95;2.90;;;;;;;;;;1871512;76;21148;-42
2021/12/17 14:57:19;;;;;;;6.72;4.67;;;;;;;;;;1872455;75;21461;-42
2021/12/17 15:05:59;;;;;;;2.95;2.15;;;;;;;;;;1862875;76;21054;-42
2021/12/17 15:08:28;;;;;;;3.50;1.50;;;;;;;;;;1872908;77;21039;-42
2021/12/17 15:10:57;;;;;;;5.50;2.05;;;;;;;;;;1872989;77;21058;-43
2021/12/17 15:13:26;;;;;;;4.62;1.95;;;;;;;;;;1873008;76;21042;-42
2021/12/17 15:15:57;;;;;;;4.62;2.05;;;;;;;;;;1872921;76;21086;-42
2021/12/17 15:18:25;;;;;;;4.65;1.80;;;;;;;;;;1872833;76;21485;-42
2021/12/17 15:20:56;;;;;;;3.77;1.10;;;;;;;;;;1872816;77;21101;-42
2021/12/17 15:23:25;;;;;;;2.47;1.00;;;;;;;;;;1872968;76;20988;-42
2021/12/17 15:25:54;;;;;;;0.80;0.70;;;;;;;;;;1873008;75;21031;-43
2021/12/17 15:28:25;;;;;;;2.55;1.07;;;;;;;;;;1872968;77;21027;-43
2021/12/17 15:30:54;;;;;;;2.30;0.70;;;;;;;;;;1872793;76;21054;-42
2021/12/17 15:33:24;;;;;;;1.22;1.02;;;;;;;;;;1872614;76;21027;-42
2021/12/17 15:35:53;;;;;;;1.15;0.90;;;;;;;;;;1872898;77;21035;-43
2021/12/17 15:38:23;;;;;;;3.60;0.80;;;;;;;;;;1860599;77;21102;-42
2021/12/17 15:40:52;;;;;;;1.65;1.10;;;;;;;;;;1872721;76;21035;-42
2021/12/17 15:43:22;;;;;;;1.32;0.95;;;;;;;;;;1872854;77;21101;-42
2021/12/17 15:45:52;;;;;;;5.53;1.37;;;;;;;;;;1872861;76;21022;-42
2021/12/17 15:48:21;;;;;;;1.85;1.30;;;;;;;;;;1872890;77;21485;-41
2021/12/17 15:50:50;;;;;;;3.52;1.85;;;;;;;;;;1872738;77;21027;-42
2021/12/17 15:53:19;;;;;;;4.05;2.10;;;;;;;;;;1872834;75;21023;-42
2021/12/17 15:55:48;;;;;;;3.58;2.50;;;;;;;;;;1860890;77;21109;-41
2021/12/17 15:58:17;;;;;;;6.58;3.77;;;;;;;;;;1860586;77;21083;-42
2021/12/17 16:00:45;;;;;;;5.50;3.10;;;;;;;;;;1876169;76;21112;-43
2021/12/17 16:03:15;;;;;;;3.17;2.22;;;;;;;;;;1891458;75;21113;-42
2021/12/17 16:05:44;;;;;;;3.00;2.02;;;;;;;;;;1891463;76;21343;-43
2021/12/17 16:08:13;;;;;;;3.12;1.80;;;;;;;;;;1891478;76;21042;-42
2021/12/17 16:21:36;;;;;;;3.77;1.98;;;;;;;;;;1877205;75;21604;-42
2021/12/17 16:24:06;;;;;;;3.20;2.20;;;;;;;;;;1891716;76;21046;-43
2021/12/17 16:26:34;;;;;;;2.75;2.00;;;;;;;;;;1890572;75;21088;-43
2021/12/17 16:29:04;;;;;;;2.95;2.30;;;;;;;;;;1891506;75;21101;-42
2021/12/17 16:31:32;;;;;;;2.60;2.05;;;;;;;;;;1891503;76;21026;-42
2021/12/17 16:34:02;;;;;;;4.28;2.80;;;;;;;;;;1891601;76;21054;-42
2021/12/17 16:36:32;;;;;;;5.12;2.45;;;;;;;;;;1891599;76;21096;-43
2021/12/17 16:39:01;;;;;;;5.92;1.98;;;;;;;;;;1891618;76;21534;-41
2021/12/17 16:41:29;;;;;;;4.72;2.00;;;;;;;;;;1891566;76;20999;-40
2021/12/17 16:44:08;;;;;;;3.50;2.00;;;;;;;;;;1891457;75;21015;-41
2021/12/17 16:49:10;;;;;;;3.45;2.30;;;;;;;;;;1891433;76;21062;-41
2021/12/17 16:51:38;;;;;;;3.77;3.00;;;;;;;;;;1891581;76;21550;-41
2021/12/17 16:54:07;;;;;;;4.42;2.95;;;;;;;;;;1891516;76;21002;-41
2021/12/17 16:56:36;;;;;;;5.12;2.40;;;;;;;;;;1891451;76;21105;-41
2021/12/17 16:59:05;;;;;;;5.70;2.72;;;;;;;;;;1891483;75;21026;-41
2021/12/17 17:01:38;;;;;;;8.18;3.72;;;;;;;;;;1885171;76;21118;-40
2021/12/17 17:04:04;;;;;;;5.50;3.33;;;;;;;;;;1872682;75;21497;-42
2021/12/17 17:06:34;;;;;;;10.45;5.15;;;;;;;;;;1872759;76;21051;-41
2021/12/17 17:09:06;;;;;;;8.30;4.30;;;;;;;;;;1872718;77;21003;-42
2021/12/17 17:11:35;;;;;;;8.05;4.80;;;;;;;;;;1872652;76;21462;-41
2021/12/17 17:14:04;;;;;;;7.47;5.12;;;;;;;;;;1872853;76;21031;-41
2021/12/17 17:16:33;;;;;;;8.78;5.22;;;;;;;;;;1872847;75;21105;-41
2021/12/17 17:19:02;;;;;;;9.05;4.95;;;;;;;;;;1872771;76;21106;-42
2021/12/17 17:21:30;;;;;;;12.55;6.22;;;;;;;;;;1872794;77;21043;-40
2021/12/17 17:24:02;;;;;;;10.85;6.75;;;;;;;;;;1872952;76;21101;-42
2021/12/17 17:26:31;;;;;;;11.80;6.42;;;;;;;;;;1872735;77;21011;-41
2021/12/17 17:29:00;;;;;;;9.20;5.53;;;;;;;;;;1872850;77;21016;-41
2021/12/17 17:31:29;;;;;;;12.35;6.35;;;;;;;;;;1872758;76;21043;-41
2021/12/17 17:34:03;;;;;;;15.23;7.03;;;;;;;;;;1872716;77;21042;-42
2021/12/17 17:36:31;;;;;;;13.00;6.22;;;;;;;;;;1872853;77;21531;-41
2021/12/17 17:39:00;;;;;;;9.03;6.28;;;;;;;;;;1872821;77;21051;-41
2021/12/17 17:41:29;;;;;;;13.28;7.33;;;;;;;;;;1872724;77;21043;-41
2021/12/17 17:43:58;;;;;;;11.48;7.47;;;;;;;;;;1872699;77;21042;-41
2021/12/17 17:46:28;;;;;;;13.05;7.05;;;;;;;;;;1872670;77;21035;-41
2021/12/17 17:48:57;;;;;;;12.88;7.67;;;;;;;;;;1872837;76;21097;-41